Time;durP1;ratioP1;P1;durP2;ratioP2;P2;SDS_P1;SDS_P2;PMS_P1;PMS_P2;Temp;Humidity;BMP_temperature;BMP_pressure;BME280_temperature;BME280_humidity;BME280_pressure;Samples;Min_cycle;Max_cycle;Signal;HPM_P1;HPM_P2
2023/10/30 00:00:08;;;;;;;4.38;3.25;;;;;;;13.41;100.00;100851.25;5060286;28;20024;-74
2023/10/30 00:02:37;;;;;;;2.95;1.85;;;;;;;13.37;100.00;100871.50;5071909;28;20017;-72
2023/10/30 00:05:04;;;;;;;3.83;2.92;;;;;;;13.88;100.00;100961.81;5074295;28;20044;-73
2023/10/30 00:07:30;;;;;;;2.15;1.95;;;;;;;13.81;100.00;100954.78;5069468;28;20468;-73
2023/10/30 00:09:55;;;;;;;3.03;2.78;;;;;;;13.82;100.00;100951.28;5074313;28;20055;-74
2023/10/30 00:12:21;;;;;;;2.65;2.03;;;;;;;13.77;100.00;100946.91;5072592;28;20473;-73
2023/10/30 00:18:08;;;;;;;3.85;3.35;;;;;;;12.85;100.00;100822.47;5074972;28;20384;-74
2023/10/30 00:20:40;;;;;;;2.45;2.25;;;;;;;12.92;100.00;100847.00;5073076;28;20028;-74
2023/10/30 00:23:05;;;;;;;5.47;4.03;;;;;;;12.92;100.00;100843.50;5073835;28;20384;-74
2023/10/30 00:25:31;;;;;;;2.70;2.33;;;;;;;12.97;100.00;100892.69;5059478;28;20144;-73
2023/10/30 00:27:59;;;;;;;5.03;4.25;;;;;;;12.67;100.00;100806.72;5052531;28;20041;-72
2023/10/30 00:30:28;;;;;;;3.03;2.75;;;;;;;12.78;100.00;100804.03;5067840;28;20369;-73
2023/10/30 00:32:54;;;;;;;5.47;5.00;;;;;;;12.85;100.00;100809.28;5072362;28;20161;-73
2023/10/30 00:35:45;;;;;;;3.20;2.55;;;;;;;13.23;100.00;100926.00;5065377;28;20033;-72
2023/10/30 00:38:10;;;;;;;4.60;3.85;;;;;;;12.95;100.00;100899.69;5067717;28;20063;-73
2023/10/30 00:43:57;;;;;;;3.60;3.28;;;;;;;13.03;100.00;100904.94;5053979;28;20519;-73
2023/10/30 00:49:44;;;;;;;4.30;3.88;;;;;;;13.28;100.00;100937.44;5053809;28;20175;-74
2023/10/30 00:52:10;;;;;;;1.40;1.30;;;;;;;12.60;100.00;100820.75;5068631;28;20041;-73
2023/10/30 00:54:35;;;;;;;2.45;2.25;;;;;;;12.61;100.00;100922.53;5053427;28;20037;-74
2023/10/30 00:57:01;;;;;;;2.90;1.10;;;;;;;12.22;100.00;100834.81;5053600;28;20029;-74
2023/10/30 00:59:26;;;;;;;2.40;2.22;;;;;;;12.44;100.00;100827.81;5053704;28;20126;-73
2023/10/30 01:01:53;;;;;;;6.78;3.55;;;;;;;12.99;100.00;100909.31;5053176;28;20384;-73
2023/10/30 01:04:18;;;;;;;2.63;2.40;;;;;;;12.76;100.00;100917.28;5053199;28;20037;-73
2023/10/30 01:06:44;;;;;;;2.25;2.05;;;;;;;12.51;100.00;100855.00;5051678;28;20044;-73
2023/10/30 01:12:31;;;;;;;6.63;4.10;;;;;;;13.01;100.00;100927.78;5051691;28;20094;-73
2023/10/30 01:18:18;;;;;;;3.92;3.28;;;;;;;12.22;100.00;100829.53;5053337;28;20055;-73
2023/10/30 01:20:44;;;;;;;1.42;1.33;;;;;;;12.36;100.00;100821.66;5053279;28;20021;-72
2023/10/30 01:23:09;;;;;;;1.75;1.65;;;;;;;12.21;100.00;100812.88;5052698;28;20507;-72
2023/10/30 01:28:56;;;;;;;4.25;3.95;;;;;;;12.92;100.00;100912.84;5053625;28;20039;-74
2023/10/30 01:31:27;;;;;;;5.78;5.22;;;;;;;12.40;100.00;100916.38;5053145;28;20045;-73
2023/10/30 01:33:54;;;;;;;7.45;2.30;;;;;;;12.18;100.00;100864.66;5052887;28;20041;-74
2023/10/30 01:36:19;;;;;;;4.63;3.22;;;;;;;12.72;100.00;100933.97;5051154;28;20468;-73
2023/10/30 01:42:06;;;;;;;2.50;2.22;;;;;;;12.19;100.00;100851.47;5053507;28;20086;-72
2023/10/30 01:44:57;;;;;;;3.15;2.85;;;;;;;12.68;100.00;100940.97;5052967;28;20392;-73
2023/10/30 01:47:25;;;;;;;4.97;3.97;;;;;;;12.25;100.00;100837.47;5053304;28;20132;-72
2023/10/30 01:49:52;;;;;;;8.10;5.75;;;;;;;12.67;100.00;100923.44;5051028;28;20041;-73
2023/10/30 01:55:41;;;;;;;1.60;1.50;;;;;;;12.04;100.00;100806.75;5053180;28;20537;-73
2023/10/30 01:58:08;;;;;;;3.10;2.45;;;;;;;12.59;100.00;100930.44;5070765;28;20044;-74
2023/10/30 02:00:34;;;;;;;2.88;2.10;;;;;;;11.59;100.00;100861.00;5072384;28;20119;-74
2023/10/30 02:06:21;;;;;;;4.97;4.30;;;;;;;11.45;100.00;100879.34;5072843;28;20422;-72
2023/10/30 02:08:47;;;;;;;6.53;3.38;;;;;;;12.23;100.00;100941.81;5072998;28;20024;-73
2023/10/30 02:11:13;;;;;;;5.35;3.67;;;;;;;12.51;100.00;100958.53;5072543;28;20043;-73
2023/10/30 02:20:21;;;;;;;4.80;2.67;;;;;;;11.60;100.00;100863.63;5053138;28;20415;-73
2023/10/30 02:22:47;;;;;;;2.65;2.45;;;;;;;12.35;100.00;100952.34;5051757;28;20041;-74
2023/10/30 02:25:13;;;;;;;4.10;2.70;;;;;;;11.43;100.00;100846.94;5051914;28;20045;-73
2023/10/30 02:27:38;;;;;;;2.67;2.33;;;;;;;12.12;100.00;100965.47;5052337;28;20037;-74
2023/10/30 02:40:06;;;;;;;3.05;2.03;;;;;;;11.93;100.00;100940.00;5056322;28;20159;-73
2023/10/30 02:42:31;;;;;;;1.60;1.48;;;;;;;11.91;100.00;100983.81;5055293;28;20116;-73
2023/10/30 02:44:57;;;;;;;1.73;1.63;;;;;;;12.03;100.00;100955.81;5055972;28;20033;-72
2023/10/30 02:47:24;;;;;;;5.22;4.72;;;;;;;12.38;100.00;100985.69;5056347;28;20033;-72
2023/10/30 02:56:32;;;;;;;3.28;2.80;;;;;;;12.12;100.00;100972.47;5036426;28;20187;-73
2023/10/30 02:58:59;;;;;;;1.92;1.73;;;;;;;12.16;100.00;100980.38;5017476;28;20482;-73
2023/10/30 03:01:26;;;;;;;6.78;3.67;;;;;;;11.87;100.00;100971.50;5035776;28;20033;-72
2023/10/30 03:03:57;;;;;;;6.03;4.28;;;;;;;11.28;100.00;100863.50;5036135;28;20048;-73
2023/10/30 03:13:06;;;;;;;6.63;4.78;;;;;;;11.94;100.00;100968.94;5035922;28;20061;-73
2023/10/30 03:15:31;;;;;;;4.53;3.42;;;;;;;11.98;100.00;100993.47;5051294;28;20033;-73
2023/10/30 03:18:22;;;;;;;7.85;3.47;;;;;;;11.80;100.00;100986.38;5043731;28;20430;-72
2023/10/30 03:20:48;;;;;;;7.47;3.38;;;;;;;11.37;100.00;100930.97;5033388;28;20026;-74
2023/10/30 03:23:14;;;;;;;5.68;5.13;;;;;;;11.33;100.00;100876.66;5035013;28;20044;-73
2023/10/30 03:25:40;;;;;;;4.25;3.63;;;;;;;12.07;100.00;100990.88;5035146;28;20034;-73
2023/10/30 03:28:34;;;;;;;3.17;2.88;;;;;;;12.07;100.00;100990.00;5035601;28;20044;-72
2023/10/30 03:31:06;;;;;;;2.45;2.05;;;;;;;11.67;100.00;100934.63;5044355;28;20045;-73
2023/10/30 03:33:32;;;;;;;4.53;3.70;;;;;;;11.31;100.00;100874.03;5055176;28;20506;-74
2023/10/30 03:39:19;;;;;;;6.13;3.40;;;;;;;11.95;100.00;100977.69;5054541;28;20052;-72
2023/10/30 03:41:45;;;;;;;2.83;2.35;;;;;;;11.16;100.00;100868.69;5055710;28;20380;-72
2023/10/30 03:44:11;;;;;;;2.88;2.55;;;;;;;10.91;100.00;100846.66;5054537;28;20120;-73
2023/10/30 03:46:37;;;;;;;2.58;2.38;;;;;;;11.86;100.00;100998.66;5052981;28;20040;-74
2023/10/30 03:49:02;;;;;;;6.10;5.53;;;;;;;11.73;100.00;100981.94;5054550;28;20073;-73
2023/10/30 03:51:27;;;;;;;1.55;1.45;;;;;;;11.69;100.00;100995.97;5054683;28;20091;-74
2023/10/30 03:57:57;;;;;;;4.38;3.85;;;;;;;11.82;100.00;101011.81;5054797;28;20124;-73
2023/10/30 04:00:24;;;;;;;1.73;1.42;;;;;;;11.53;100.00;100979.22;5053996;28;20033;-72
2023/10/30 04:02:50;;;;;;;2.42;2.22;;;;;;;11.45;100.00;100971.31;5054857;28;20365;-72
2023/10/30 04:08:39;;;;;;;4.65;1.90;;;;;;;12.00;100.00;101010.16;5035196;28;20370;-73
2023/10/30 04:11:10;;;;;;;5.85;5.28;;;;;;;10.99;100.00;100893.13;5033936;28;20041;-73
2023/10/30 04:13:36;;;;;;;4.20;3.80;;;;;;;11.18;100.00;100908.97;5034986;28;20073;-73
2023/10/30 04:16:01;;;;;;;2.92;2.00;;;;;;;11.82;100.00;101026.69;5033910;28;20224;-75
2023/10/30 04:18:28;;;;;;;3.58;2.40;;;;;;;11.84;100.00;101017.06;5033887;28;20026;-72
2023/10/30 04:20:55;;;;;;;6.82;4.40;;;;;;;11.10;100.00;100900.19;5034101;28;20025;-72
2023/10/30 04:26:42;;;;;;;4.90;4.40;;;;;;;11.70;100.00;101010.84;5034487;28;20056;-72
2023/10/30 04:29:08;;;;;;;5.00;4.10;;;;;;;11.11;100.00;100902.81;5033445;28;20485;-72
2023/10/30 04:31:33;;;;;;;0.93;0.90;;;;;;;11.13;100.00;100882.69;5016014;28;20370;-74
2023/10/30 04:33:59;;;;;;;4.97;4.18;;;;;;;11.18;100.00;100916.88;5033945;28;20060;-73
2023/10/30 04:39:46;;;;;;;3.25;2.25;;;;;;;11.81;100.00;101027.56;5033858;28;20508;-73
2023/10/30 04:42:18;;;;;;;6.10;4.68;;;;;;;11.71;100.00;101002.13;5033514;28;20050;-72
2023/10/30 04:44:43;;;;;;;2.63;2.42;;;;;;;11.29;100.00;100909.06;5033252;28;20373;-74
2023/10/30 04:47:09;;;;;;;5.00;4.60;;;;;;;11.64;100.00;100963.53;5032350;28;20048;-73
2023/10/30 04:52:56;;;;;;;4.70;4.25;;;;;;;11.24;100.00;100919.53;5034344;28;20111;-73
2023/10/30 04:58:43;;;;;;;0.47;0.47;;;;;;;11.12;100.00;100928.22;5033606;28;20075;-73
2023/10/30 05:01:09;;;;;;;5.05;4.03;;;;;;;11.23;100.00;100979.94;5011040;28;20111;-72
2023/10/30 05:03:37;;;;;;;4.00;3.63;;;;;;;10.71;100.00;100980.44;5030776;28;20068;-73
2023/10/30 05:06:03;;;;;;;2.30;2.10;;;;;;;11.01;100.00;101018.31;5028917;28;20056;-73
2023/10/30 05:08:28;;;;;;;2.95;2.33;;;;;;;10.34;100.00;100906.63;5029446;28;20441;-73
2023/10/30 05:10:54;;;;;;;5.13;4.65;;;;;;;11.06;100.00;100983.31;5050113;28;20123;-74
2023/10/30 05:13:20;;;;;;;0.30;0.30;;;;;;;11.42;100.00;101013.31;5025314;28;20056;-74
2023/10/30 05:15:46;;;;;;;2.47;2.10;;;;;;;11.35;100.00;100995.75;5052901;28;20029;-73
2023/10/30 05:18:13;;;;;;;6.75;6.38;;;;;;;11.36;100.00;101001.03;5053040;28;20049;-72
2023/10/30 05:20:38;;;;;;;4.68;4.25;;;;;;;11.24;100.00;100956.31;5053562;28;20029;-73
2023/10/30 05:23:04;;;;;;;4.82;4.47;;;;;;;11.08;100.00;100900.19;5052756;28;20048;-73
2023/10/30 05:25:29;;;;;;;5.93;4.88;;;;;;;11.36;100.00;100997.53;5052314;28;20029;-73
2023/10/30 05:27:57;;;;;;;0.88;0.40;;;;;;;11.23;100.00;101000.94;5052512;28;20045;-73
2023/10/30 05:30:22;;;;;;;4.88;3.85;;;;;;;11.33;100.00;101011.53;5042156;28;20064;-72
2023/10/30 05:32:48;;;;;;;3.45;3.15;;;;;;;10.29;100.00;100843.63;5029722;28;20435;-74
2023/10/30 05:35:13;;;;;;;6.55;4.20;;;;;;;11.46;100.00;101009.84;5034364;28;20162;-73
2023/10/30 05:37:39;;;;;;;6.65;5.35;;;;;;;11.48;100.00;101033.53;5052108;28;20052;-73
2023/10/30 05:43:27;;;;;;;0.73;0.73;;;;;;;11.65;100.00;101026.59;5052540;28;20145;-73
2023/10/30 05:45:53;;;;;;;3.72;2.33;;;;;;;11.82;100.00;101005.66;5034140;28;20055;-72
2023/10/30 05:48:19;;;;;;;3.25;2.97;;;;;;;12.09;100.00;101018.06;5051886;28;20041;-73
2023/10/30 05:50:44;;;;;;;3.53;3.22;;;;;;;12.16;100.00;101019.84;5052445;28;20028;-73
2023/10/30 05:56:31;;;;;;;3.03;2.80;;;;;;;12.03;100.00;101018.03;5053137;28;20056;-73
2023/10/30 05:58:57;;;;;;;5.60;4.65;;;;;;;11.90;100.00;100995.22;5051827;28;20462;-74
2023/10/30 06:01:22;;;;;;;5.65;4.57;;;;;;;11.50;100.00;100922.28;5051415;28;20044;-74
2023/10/30 06:07:10;;;;;;;5.55;3.42;;;;;;;12.51;100.00;101031.34;5050323;28;20083;-73
2023/10/30 06:09:36;;;;;;;7.10;6.53;;;;;;;12.63;100.00;101026.09;5051359;28;20461;-74
2023/10/30 06:12:02;;;;;;;5.40;3.88;;;;;;;12.55;100.00;100989.25;5050103;28;20384;-73
2023/10/30 06:14:28;;;;;;;4.05;3.28;;;;;;;12.71;100.00;101012.94;5037768;28;20077;-74
2023/10/30 06:23:36;;;;;;;20.00;13.65;;;;;;;13.17;100.00;101027.00;5040855;28;20055;-73
2023/10/30 06:29:24;;;;;;;2.08;1.95;;;;;;;13.36;100.00;101029.66;5052337;28;20432;-72
2023/10/30 06:35:11;;;;;;;1.90;1.70;;;;;;;13.03;100.00;100952.38;5052284;28;20040;-73
2023/10/30 06:40:58;;;;;;;3.35;2.95;;;;;;;13.66;100.00;101015.53;5052299;28;20044;-74
2023/10/30 06:43:24;;;;;;;1.48;1.27;;;;;;;13.75;100.00;101019.91;5051095;28;20045;-77
2023/10/30 06:45:57;;;;;;;3.92;2.83;;;;;;;13.48;100.00;100946.13;5051173;28;20060;-75
2023/10/30 06:48:22;;;;;;;;;;;;;;;14.00;100.00;101013.66;5051972;28;20045;-74
2023/10/30 06:50:48;;;;;;;3.65;2.47;;;;;;;13.45;100.00;100903.97;5051901;28;20272;-75
2023/10/30 06:53:13;;;;;;;3.47;2.60;;;;;;;13.21;100.00;100860.09;5051117;28;20523;-75
2023/10/30 06:55:40;;;;;;;2.22;2.13;;;;;;;12.85;100.00;100766.25;5051306;28;20041;-77
2023/10/30 07:04:49;;;;;;;3.10;2.80;;;;;;;14.72;100.00;100999.16;5030345;28;20123;-75
2023/10/30 07:07:14;;;;;;;1.70;1.60;;;;;;;14.57;100.00;100969.31;5018864;28;20045;-77
2023/10/30 07:09:40;;;;;;;4.15;3.63;;;;;;;14.88;100.00;100963.78;5030881;28;20474;-78
2023/10/30 07:12:06;;;;;;;2.00;1.27;;;;;;;14.80;100.00;100912.78;5031361;28;20468;-76
2023/10/30 07:17:56;;;;;;;0.93;0.82;;;;;;;14.94;100.00;100939.09;5035088;28;20100;-77
2023/10/30 07:20:21;;;;;;;6.20;4.43;;;;;;;15.03;100.00;100949.56;5017446;28;20033;-77
2023/10/30 07:26:09;;;;;;;23.48;6.15;;;;;;;15.62;100.00;100990.38;5034212;28;20048;-79
2023/10/30 07:28:34;;;;;;;3.40;2.88;;;;;;;15.33;100.00;100923.69;5048974;28;20045;-78
2023/10/30 07:31:01;;;;;;;2.13;1.92;;;;;;;15.10;100.00;100858.75;5051918;28;20064;-77
2023/10/30 07:33:27;;;;;;;3.05;2.20;;;;;;;15.69;100.00;100880.06;5036697;28;20036;-74
2023/10/30 07:39:14;;;;;;;2.72;2.17;;;;;;;15.60;100.00;100862.53;5054717;28;20122;-76
2023/10/30 07:41:40;;;;;;;3.08;2.47;;;;;;;16.21;100.00;100960.53;5054449;28;20052;-76
2023/10/30 07:44:07;;;;;;;1.30;0.88;;;;;;;16.42;100.00;100972.56;5054540;28;20110;-77
2023/10/30 07:46:33;;;;;;;2.38;1.73;;;;;;;16.39;100.00;100944.38;5030513;28;20045;-74
2023/10/30 07:55:38;;;;;;;1.55;1.25;;;;;;;16.00;100.00;100784.34;5034545;28;20041;-77
2023/10/30 07:58:05;;;;;;;4.38;2.30;;;;;;;16.66;100.00;100847.63;5033825;28;20037;-75
2023/10/30 08:00:31;;;;;;;2.65;2.45;;;;;;;17.12;100.00;100945.84;5032717;28;20046;-75
2023/10/30 08:02:58;;;;;;;1.65;1.38;;;;;;;16.61;100.00;100876.00;5024967;28;20029;-76
2023/10/30 08:08:59;;;;;;;0.98;0.93;;;;;;;16.66;100.00;100847.63;5058018;28;20124;-77
2023/10/30 08:27:02;;;;;;;4.05;3.05;;;;;;;18.56;100.00;100959.56;5007675;28;20092;-78
2023/10/30 08:29:28;;;;;;;2.97;2.72;;;;;;;18.53;100.00;100958.78;5029574;28;20376;-77
2023/10/30 08:31:53;;;;;;;3.85;3.13;;;;;;;18.07;100.00;100869.53;5032717;28;20045;-77
2023/10/30 08:37:49;;;;;;;2.38;2.17;;;;;;;18.26;100.00;100925.75;5033525;28;20092;-76
2023/10/30 08:43:36;;;;;;;1.88;1.73;;;;;;;18.22;100.00;100905.50;5033993;28;20385;-77
2023/10/30 08:46:02;;;;;;;11.00;3.40;;;;;;;18.00;100.00;100868.81;5031381;28;20034;-76
2023/10/30 08:48:28;;;;;;;3.03;2.78;;;;;;;18.85;100.00;100930.56;5032992;28;20037;-76
2023/10/30 08:50:53;;;;;;;2.53;2.30;;;;;;;19.02;100.00;100941.63;5025262;28;20025;-75
2023/10/30 08:53:19;;;;;;;3.25;2.08;;;;;;;18.76;100.00;100911.28;5033991;28;20072;-75
2023/10/30 08:55:44;;;;;;;1.52;1.05;;;;;;;18.72;100.00;100901.59;5032898;28;20041;-75
2023/10/30 08:58:10;;;;;;;1.80;1.58;;;;;;;19.09;100.00;100955.66;5032974;28;20429;-75
2023/10/30 09:10:41;;;;;;;3.22;2.92;;;;;;;19.46;100.00;100946.66;5032331;28;20079;-79
2023/10/30 09:13:06;;;;;;;1.65;1.20;;;;;;;19.49;100.00;100907.50;5014708;28;20136;-79
2023/10/30 09:15:32;;;;;;;8.85;2.85;;;;;;;19.21;100.00;100864.84;5031915;28;20037;-78
2023/10/30 09:17:58;;;;;;;1.80;0.90;;;;;;;19.66;100.00;100956.72;5022307;28;20045;-81
2023/10/30 09:27:07;;;;;;;1.67;1.58;;;;;;;19.75;100.00;100908.56;5070344;28;20040;-78
2023/10/30 09:29:32;;;;;;;0.82;0.82;;;;;;;19.99;100.00;100930.91;5071662;28;20445;-76
2023/10/30 09:32:02;;;;;;;1.92;1.83;;;;;;;19.76;100.00;100912.94;5052786;28;20051;-76
2023/10/30 09:35:03;;;;;;;4.40;3.97;;;;;;;19.97;100.00;100940.72;5072323;28;20085;-77
2023/10/30 09:41:03;;;;;;;4.55;2.80;;;;;;;19.46;100.00;100826.88;5072523;28;20170;-77
2023/10/30 09:43:29;;;;;;;7.15;3.25;;;;;;;20.20;100.00;100921.38;5072191;28;20083;-76
2023/10/30 09:46:00;;;;;;;3.95;2.45;;;;;;;20.35;100.00;100922.69;5071952;28;20461;-77
2023/10/30 09:48:28;;;;;;;1.63;1.52;;;;;;;20.43;100.00;100939.28;5069507;28;20071;-78
2023/10/30 09:54:17;;;;;;;1.17;0.88;;;;;;;21.57;100.00;100908.72;5057770;28;20495;-77
2023/10/30 10:00:05;;;;;;;0.85;0.80;;;;;;;21.21;100.00;100831.69;5046085;28;20113;-79
2023/10/30 10:02:34;;;;;;;3.13;1.90;;;;;;;21.47;100.00;100814.72;5052075;28;20483;-76
2023/10/30 10:05:00;;;;;;;4.28;2.08;;;;;;;21.73;100.00;100896.50;5052969;28;20440;-79
2023/10/30 10:07:26;;;;;;;2.20;1.38;;;;;;;21.45;100.00;100811.25;5051973;28;20052;-84
2023/10/30 10:10:09;;;;;;;1.35;0.95;;;;;;;21.74;100.00;100799.41;5052069;28;20044;-77
2023/10/30 10:12:39;;;;;;;2.10;1.92;;;;;;;21.89;100.00;100830.84;5051735;28;20112;-76
2023/10/30 10:18:40;;;;;;;0.60;0.60;;;;;;;21.38;100.00;100887.13;5041204;28;20179;-78
2023/10/30 10:21:11;;;;;;;3.53;2.33;;;;;;;21.45;100.00;100888.69;5031683;28;20042;-74
2023/10/30 10:23:38;;;;;;;2.00;1.73;;;;;;;21.80;100.00;100798.31;5032272;28;20508;-75
2023/10/30 10:26:06;;;;;;;1.55;1.10;;;;;;;22.26;100.00;100881.97;5032146;28;20045;-76
2023/10/30 10:28:33;;;;;;;1.13;1.02;;;;;;;21.77;97.72;100860.72;5031587;28;20469;-75
2023/10/30 10:30:59;;;;;;;6.05;1.85;;;;;;;22.41;100.00;100870.66;5031450;28;20045;-75
2023/10/30 10:33:30;;;;;;;4.53;2.15;;;;;;;22.14;100.00;100837.84;5031208;28;20029;-74
2023/10/30 10:35:56;;;;;;;2.13;1.75;;;;;;;22.77;100.00;100870.00;5028258;28;20231;-74
2023/10/30 10:38:22;;;;;;;1.75;0.95;;;;;;;22.10;94.83;100786.34;5028567;28;20037;-74
2023/10/30 10:44:11;;;;;;;0.75;0.70;;;;;;;22.74;100.00;100832.69;5037788;28;20072;-75
2023/10/30 10:46:36;;;;;;;3.60;2.40;;;;;;;23.10;100.00;100827.50;5029943;28;20061;-73
2023/10/30 10:49:15;;;;;;;1.70;1.10;;;;;;;23.11;93.47;100856.03;5045959;28;20447;-74
2023/10/30 10:51:43;;;;;;;2.38;2.20;;;;;;;22.96;97.04;100843.28;5042033;28;20033;-74
2023/10/30 10:54:27;;;;;;;1.95;1.85;;;;;;;22.50;100.00;100744.56;5044111;28;20084;-73
2023/10/30 10:57:48;;;;;;;1.58;1.48;;;;;;;23.40;100.00;100845.78;5032672;28;20056;-73
2023/10/30 11:00:15;;;;;;;1.38;1.13;;;;;;;22.50;87.15;100767.72;5033781;28;20061;-73
2023/10/30 11:02:46;;;;;;;2.10;1.60;;;;;;;23.17;100.00;100837.00;5030438;28;20532;-78
2023/10/30 11:05:12;;;;;;;0.90;0.57;;;;;;;23.18;100.00;100800.41;5031290;28;20048;-81
2023/10/30 11:08:02;;;;;;;3.38;2.13;;;;;;;23.11;94.78;100837.28;5043342;28;20128;-73
2023/10/30 11:10:37;;;;;;;1.35;1.25;;;;;;;23.35;94.74;100815.69;5052142;28;20044;-74
2023/10/30 11:16:35;;;;;;;1.20;1.10;;;;;;;23.36;85.65;100820.94;5054699;28;20511;-71
2023/10/30 11:22:38;;;;;;;7.43;3.30;;;;;;;23.17;76.38;100806.69;5055091;28;20150;-77
2023/10/30 11:28:27;;;;;;;1.23;0.88;;;;;;;22.99;76.19;100764.69;5054895;28;20503;-80
2023/10/30 11:34:14;;;;;;;2.30;1.67;;;;;;;22.75;80.14;100724.72;5055008;28;20072;-74
2023/10/30 11:40:06;;;;;;;1.23;1.15;;;;;;;23.03;78.32;100767.16;5054445;28;20051;-74
2023/10/30 11:42:39;;;;;;;2.10;1.08;;;;;;;23.14;73.92;100778.25;5054340;28;20040;-75
2023/10/30 11:45:22;;;;;;;0.40;0.40;;;;;;;23.20;72.16;100786.94;5036067;28;20071;-73
2023/10/30 11:51:09;;;;;;;1.05;0.88;;;;;;;22.90;78.48;100771.31;5055075;28;20321;-75
2023/10/30 11:53:35;;;;;;;2.53;2.17;;;;;;;22.55;78.48;100690.84;5036261;28;20036;-75
2023/10/30 11:56:02;;;;;;;1.30;1.20;;;;;;;23.16;72.47;100771.00;5019736;28;20105;-75
2023/10/30 11:58:28;;;;;;;1.70;1.15;;;;;;;23.18;73.79;100762.94;5054038;28;20128;-75
2023/10/30 12:00:57;;;;;;;1.58;1.48;;;;;;;23.11;68.20;100756.13;5053266;28;20530;-74
2023/10/30 12:03:23;;;;;;;1.33;0.90;;;;;;;22.73;68.63;100676.63;5054358;28;20052;-75
2023/10/30 12:05:48;;;;;;;5.00;2.85;;;;;;;23.20;70.23;100757.47;5054367;28;20483;-75
2023/10/30 12:15:00;;;;;;;1.10;1.00;;;;;;;23.35;65.17;100756.75;5054596;28;20055;-77
2023/10/30 12:17:26;;;;;;;1.50;1.20;;;;;;;23.47;64.49;100753.50;5054669;28;20075;-76
2023/10/30 12:19:52;;;;;;;1.25;1.15;;;;;;;23.02;64.98;100689.63;5053476;28;20037;-75
2023/10/30 12:22:19;;;;;;;0.52;0.40;;;;;;;23.45;61.62;100754.50;5053804;28;20486;-76
2023/10/30 12:28:06;;;;;;;0.43;0.43;;;;;;;23.02;61.83;100658.38;5053770;28;20047;-76
2023/10/30 12:30:35;;;;;;;2.67;0.47;;;;;;;23.53;59.74;100739.81;5035506;28;20033;-76
2023/10/30 12:33:02;;;;;;;2.35;1.98;;;;;;;23.60;59.62;100735.03;5053317;28;20085;-77
2023/10/30 12:35:27;;;;;;;0.73;0.55;;;;;;;23.11;61.37;100663.28;5053989;28;20444;-76
2023/10/30 12:37:53;;;;;;;1.17;1.08;;;;;;;23.28;60.16;100675.84;5052611;28;20021;-75
2023/10/30 12:40:18;;;;;;;8.68;1.27;;;;;;;23.51;59.42;100708.69;5053466;28;20354;-74
2023/10/30 12:42:54;;;;;;;0.60;0.57;;;;;;;23.51;58.38;100700.66;5053331;28;20041;-76
2023/10/30 12:48:41;;;;;;;1.65;0.82;;;;;;;23.62;58.93;100702.78;5053602;28;20113;-75
2023/10/30 12:54:28;;;;;;;1.05;1.05;;;;;;;23.14;60.56;100651.56;5053271;28;20397;-76
2023/10/30 13:00:15;;;;;;;1.27;1.10;;;;;;;23.31;56.08;100640.88;5052997;28;20059;-76
2023/10/30 13:06:02;;;;;;;1.23;1.13;;;;;;;23.43;55.28;100673.34;5053288;28;20052;-76
2023/10/30 13:08:28;;;;;;;0.93;0.73;;;;;;;23.68;55.45;100708.69;5036443;28;20022;-74
2023/10/30 13:10:53;;;;;;;1.60;0.65;;;;;;;23.48;55.87;100687.38;5030645;28;20037;-75
2023/10/30 13:13:19;;;;;;;0.85;0.75;;;;;;;22.89;57.16;100603.66;5013813;28;20053;-77
2023/10/30 13:15:47;;;;;;;1.02;0.90;;;;;;;23.28;58.18;100678.53;5040441;28;20134;-76
2023/10/30 13:18:13;;;;;;;0.40;0.40;;;;;;;23.22;54.59;100685.97;5039697;28;20420;-74
2023/10/30 13:20:38;;;;;;;1.23;1.13;;;;;;;23.37;51.74;100717.38;5073393;28;20017;-75
2023/10/30 13:23:04;;;;;;;6.18;2.45;;;;;;;23.41;51.24;100700.22;5072606;28;20329;-76
2023/10/30 13:28:52;;;;;;;0.63;0.63;;;;;;;22.95;51.91;100635.50;5072796;28;20444;-77
2023/10/30 13:31:19;;;;;;;0.55;0.32;;;;;;;23.30;52.38;100699.88;5072106;28;20040;-75
2023/10/30 13:33:46;;;;;;;0.73;0.57;;;;;;;22.80;52.79;100626.34;5054424;28;20033;-76
2023/10/30 13:36:12;;;;;;;2.40;1.50;;;;;;;22.85;53.32;100631.50;5072304;28;20115;-77
2023/10/30 13:41:59;;;;;;;0.30;0.30;;;;;;;23.32;52.82;100689.94;5072870;28;20052;-75
2023/10/30 13:44:51;;;;;;;2.08;0.30;;;;;;;23.18;52.93;100696.84;5072518;28;20029;-77
2023/10/30 13:50:38;;;;;;;0.85;0.85;;;;;;;22.37;53.03;100539.28;5073181;28;20506;-75
2023/10/30 13:56:25;;;;;;;0.60;0.60;;;;;;;22.37;52.78;100588.25;5072835;28;20150;-75
2023/10/30 13:58:51;;;;;;;0.45;0.40;;;;;;;22.83;52.69;100679.75;5071775;28;20151;-75
2023/10/30 14:01:18;;;;;;;0.63;0.50;;;;;;;22.86;52.54;100671.56;5053768;28;20438;-76
2023/10/30 14:03:43;;;;;;;0.57;0.50;;;;;;;22.94;53.53;100695.28;5072279;28;20494;-76
2023/10/30 14:12:52;;;;;;;1.52;1.35;;;;;;;22.24;54.12;100596.00;5071981;28;20055;-74
2023/10/30 14:18:39;;;;;;;2.05;1.58;;;;;;;22.19;55.09;100599.75;5063642;28;20083;-75
2023/10/30 14:31:09;;;;;;;1.95;1.75;;;;;;;22.37;56.58;100668.47;5036532;28;20385;-76
2023/10/30 14:36:56;;;;;;;1.23;1.02;;;;;;;22.10;58.29;100657.16;5036241;28;20064;-75
2023/10/30 14:39:22;;;;;;;1.40;1.25;;;;;;;21.66;59.04;100588.72;5035465;28;20461;-76
2023/10/30 14:41:47;;;;;;;1.55;1.45;;;;;;;22.01;58.67;100652.22;5036352;28;20029;-76
2023/10/30 14:44:13;;;;;;;1.35;0.65;;;;;;;22.00;59.71;100666.53;5035110;28;20612;-75
2023/10/30 14:50:00;;;;;;;0.55;0.35;;;;;;;21.79;63.85;100657.63;5035837;28;20064;-75
2023/10/30 14:55:47;;;;;;;0.85;0.75;;;;;;;21.61;67.61;100668.16;5036174;28;20044;-75
2023/10/30 14:58:50;;;;;;;0.60;0.47;;;;;;;21.57;69.15;100677.22;5037199;28;20041;-75
2023/10/30 15:07:59;;;;;;;1.05;0.95;;;;;;;21.06;74.78;100643.69;5035741;28;20060;-75
2023/10/30 15:10:27;;;;;;;1.90;1.25;;;;;;;20.99;77.19;100650.19;5035041;28;20037;-78
2023/10/30 15:12:56;;;;;;;1.45;1.10;;;;;;;20.45;79.12;100582.91;5016763;28;20591;-75
2023/10/30 15:15:23;;;;;;;1.05;0.80;;;;;;;20.91;79.13;100666.50;5035187;28;20056;-76
2023/10/30 15:17:48;;;;;;;0.40;0.40;;;;;;;20.39;81.62;100593.78;5036298;28;20025;-75
2023/10/30 15:20:14;;;;;;;1.92;1.77;;;;;;;20.52;84.67;100676.84;5013784;28;20401;-75
2023/10/30 15:22:40;;;;;;;1.45;1.00;;;;;;;20.17;86.88;100645.22;5032954;28;20088;-75
2023/10/30 15:28:27;;;;;;;0.80;0.80;;;;;;;20.34;89.52;100676.56;5035034;28;20484;-75
2023/10/30 15:30:54;;;;;;;1.65;1.00;;;;;;;20.10;92.16;100682.78;5034637;28;20079;-73
2023/10/30 15:33:22;;;;;;;1.05;0.82;;;;;;;20.12;93.02;100672.97;5034606;28;20060;-74
2023/10/30 15:35:48;;;;;;;3.58;2.95;;;;;;;19.53;94.15;100584.41;5016505;28;20029;-75
2023/10/30 15:41:35;;;;;;;1.23;1.13;;;;;;;19.24;97.24;100571.22;5035442;28;20116;-75
2023/10/30 15:47:24;;;;;;;1.48;1.38;;;;;;;19.73;100.00;100684.91;5035267;28;20242;-77
2023/10/30 15:53:11;;;;;;;2.83;1.77;;;;;;;19.57;100.00;100696.97;5034185;28;20044;-76
2023/10/30 15:58:59;;;;;;;1.80;1.45;;;;;;;19.42;100.00;100693.00;5034240;28;20048;-76
2023/10/30 16:04:48;;;;;;;1.90;1.65;;;;;;;18.75;100.00;100608.19;5032853;28;20060;-75
2023/10/30 16:07:13;;;;;;;22.48;14.18;;;;;;;19.31;100.00;100700.47;5025478;28;20045;-75
2023/10/30 16:09:39;;;;;;;8.65;6.32;;;;;;;19.01;100.00;100657.97;5035921;28;20044;-76
2023/10/30 16:12:08;;;;;;;8.63;6.40;;;;;;;19.16;100.00;100691.19;5053597;28;20427;-76
2023/10/30 16:18:53;;;;;;;6.95;5.80;;;;;;;19.00;100.00;100697.88;5054526;28;20055;-75
2023/10/30 16:29:03;;;;;;;11.18;3.15;;;;;;;18.52;100.00;100696.59;5054375;28;20326;-75
2023/10/30 16:38:16;;;;;;;2.78;2.50;;;;;;;18.47;100.00;100691.41;5042568;28;20124;-76
2023/10/30 16:40:42;;;;;;;3.58;3.10;;;;;;;18.35;100.00;100679.34;5053306;28;20128;-75
2023/10/30 16:46:30;;;;;;;1.83;1.35;;;;;;;18.25;100.00;100695.56;5052931;28;20047;-75
2023/10/30 16:48:55;;;;;;;4.97;1.52;;;;;;;18.00;100.00;100692.69;5053548;28;20041;-75
2023/10/30 16:51:21;;;;;;;3.72;2.83;;;;;;;17.91;100.00;100667.22;5052084;28;20485;-76